sensor_id;sensor_type;location;lat;lon;timestamp;pressure;altitude;pressure_sealevel;temperature;humidity
51460;BME280;37534;39.772;2.718;2022-09-02T00:00:33;100952.34;;;26.54;100.00
51460;BME280;37534;39.772;2.718;2022-09-02T00:02:59;100957.94;;;26.61;100.00
51460;BME280;37534;39.772;2.718;2022-09-02T00:05:24;100951.13;;;26.68;100.00
51460;BME280;37534;39.772;2.718;2022-09-02T00:07:50;100950.44;;;26.66;100.00
51460;BME280;37534;39.772;2.718;2022-09-02T00:10:16;100943.03;;;26.60;100.00
51460;BME280;37534;39.772;2.718;2022-09-02T00:12:41;100952.66;;;26.61;100.00
51460;BME280;37534;39.772;2.718;2022-09-02T00:15:07;100921.00;;;26.50;100.00
51460;BME280;37534;39.772;2.718;2022-09-02T00:17:33;100941.09;;;26.52;100.00
51460;BME280;37534;39.772;2.718;2022-09-02T00:19:58;100936.63;;;26.53;100.00
51460;BME280;37534;39.772;2.718;2022-09-02T00:22:24;100931.03;;;26.36;100.00
51460;BME280;37534;39.772;2.718;2022-09-02T00:24:49;100934.91;;;26.32;100.00
51460;BME280;37534;39.772;2.718;2022-09-02T00:27:15;100930.03;;;26.18;100.00
51460;BME280;37534;39.772;2.718;2022-09-02T00:29:40;100945.34;;;26.24;100.00
51460;BME280;37534;39.772;2.718;2022-09-02T00:32:06;100934.63;;;26.16;100.00
51460;BME280;37534;39.772;2.718;2022-09-02T00:34:31;100937.66;;;26.11;100.00
51460;BME280;37534;39.772;2.718;2022-09-02T00:36:57;100934.44;;;25.98;100.00
51460;BME280;37534;39.772;2.718;2022-09-02T00:39:23;100928.03;;;26.01;100.00
51460;BME280;37534;39.772;2.718;2022-09-02T00:41:50;100926.53;;;26.17;100.00
51460;BME280;37534;39.772;2.718;2022-09-02T00:44:18;100923.78;;;26.19;100.00
51460;BME280;37534;39.772;2.718;2022-09-02T00:46:44;100912.63;;;26.15;100.00
51460;BME280;37534;39.772;2.718;2022-09-02T00:49:19;100910.09;;;26.04;100.00
51460;BME280;37534;39.772;2.718;2022-09-02T00:51:59;100916.75;;;25.98;100.00
51460;BME280;37534;39.772;2.718;2022-09-02T00:54:29;100901.41;;;25.92;100.00
51460;BME280;37534;39.772;2.718;2022-09-02T00:56:55;100908.66;;;25.90;100.00
51460;BME280;37534;39.772;2.718;2022-09-02T01:02:10;100909.56;;;26.20;100.00
51460;BME280;37534;39.772;2.718;2022-09-02T01:04:36;100913.06;;;26.21;100.00
51460;BME280;37534;39.772;2.718;2022-09-02T01:07:01;100909.72;;;26.28;100.00
51460;BME280;37534;39.772;2.718;2022-09-02T01:09:28;100915.72;;;26.50;100.00
51460;BME280;37534;39.772;2.718;2022-09-02T01:11:58;100909.06;;;26.65;100.00
51460;BME280;37534;39.772;2.718;2022-09-02T01:14:24;100912.41;;;26.77;100.00
51460;BME280;37534;39.772;2.718;2022-09-02T01:16:55;100891.66;;;26.72;100.00
51460;BME280;37534;39.772;2.718;2022-09-02T01:19:45;100898.34;;;26.77;100.00
51460;BME280;37534;39.772;2.718;2022-09-02T01:22:19;100898.44;;;26.55;100.00
51460;BME280;37534;39.772;2.718;2022-09-02T01:24:45;100905.16;;;26.40;100.00
51460;BME280;37534;39.772;2.718;2022-09-02T01:27:17;100894.81;;;26.27;100.00
51460;BME280;37534;39.772;2.718;2022-09-02T01:29:43;100899.28;;;26.17;100.00
51460;BME280;37534;39.772;2.718;2022-09-02T01:32:09;100888.13;;;26.23;100.00
51460;BME280;37534;39.772;2.718;2022-09-02T01:34:35;100894.13;;;26.25;100.00
51460;BME280;37534;39.772;2.718;2022-09-02T01:37:01;100894.13;;;26.25;100.00
51460;BME280;37534;39.772;2.718;2022-09-02T01:39:26;100891.91;;;26.30;100.00
51460;BME280;37534;39.772;2.718;2022-09-02T01:41:52;100892.16;;;26.27;100.00
51460;BME280;37534;39.772;2.718;2022-09-02T01:44:17;100893.44;;;26.23;100.00
51460;BME280;37534;39.772;2.718;2022-09-02T01:46:43;100880.78;;;26.17;100.00
51460;BME280;37534;39.772;2.718;2022-09-02T01:49:09;100881.44;;;26.09;100.00
51460;BME280;37534;39.772;2.718;2022-09-02T01:51:35;100865.84;;;25.96;100.00
51460;BME280;37534;39.772;2.718;2022-09-02T01:54:01;100880.00;;;25.95;100.00
51460;BME280;37534;39.772;2.718;2022-09-02T01:56:27;100868.44;;;25.87;100.00
51460;BME280;37534;39.772;2.718;2022-09-02T01:58:53;100859.91;;;25.83;100.00
51460;BME280;37534;39.772;2.718;2022-09-02T02:01:19;100870.34;;;25.85;100.00
51460;BME280;37534;39.772;2.718;2022-09-02T02:03:45;100870.66;;;25.91;100.00
51460;BME280;37534;39.772;2.718;2022-09-02T02:06:14;100874.88;;;26.04;100.00
51460;BME280;37534;39.772;2.718;2022-09-02T02:08:41;100882.28;;;26.10;100.00
51460;BME280;37534;39.772;2.718;2022-09-02T02:11:08;100871.13;;;26.06;100.00
51460;BME280;37534;39.772;2.718;2022-09-02T02:13:35;100857.06;;;25.96;100.00
51460;BME280;37534;39.772;2.718;2022-09-02T02:16:01;100857.88;;;25.87;100.00
51460;BME280;37534;39.772;2.718;2022-09-02T02:18:27;100856.31;;;25.84;100.00
51460;BME280;37534;39.772;2.718;2022-09-02T02:20:54;100849.06;;;25.76;100.00
51460;BME280;37534;39.772;2.718;2022-09-02T02:23:20;100858.97;;;25.84;100.00
51460;BME280;37534;39.772;2.718;2022-09-02T02:25:46;100848.91;;;25.68;100.00
51460;BME280;37534;39.772;2.718;2022-09-02T02:28:12;100856.25;;;25.65;100.00
51460;BME280;37534;39.772;2.718;2022-09-02T02:30:39;100852.38;;;25.69;100.00
51460;BME280;37534;39.772;2.718;2022-09-02T02:33:04;100845.13;;;25.61;100.00
51460;BME280;37534;39.772;2.718;2022-09-02T02:35:30;100843.72;;;25.57;100.00
51460;BME280;37534;39.772;2.718;2022-09-02T02:37:56;100849.28;;;25.54;100.00
51460;BME280;37534;39.772;2.718;2022-09-02T02:40:23;100852.59;;;25.46;100.00
51460;BME280;37534;39.772;2.718;2022-09-02T02:42:50;100847.84;;;25.40;100.00
51460;BME280;37534;39.772;2.718;2022-09-02T02:45:18;100849.78;;;25.38;100.00
51460;BME280;37534;39.772;2.718;2022-09-02T02:47:44;100859.31;;;25.29;100.00
51460;BME280;37534;39.772;2.718;2022-09-02T02:50:15;100850.31;;;25.32;100.00
51460;BME280;37534;39.772;2.718;2022-09-02T02:52:42;100852.16;;;25.41;100.00
51460;BME280;37534;39.772;2.718;2022-09-02T02:55:09;100846.94;;;25.60;100.00
51460;BME280;37534;39.772;2.718;2022-09-02T02:57:37;100853.38;;;25.68;100.00
51460;BME280;37534;39.772;2.718;2022-09-02T03:00:28;100852.09;;;25.72;100.00
51460;BME280;37534;39.772;2.718;2022-09-02T03:02:59;100849.59;;;25.70;100.00
51460;BME280;37534;39.772;2.718;2022-09-02T03:05:26;100840.16;;;25.68;100.00
51460;BME280;37534;39.772;2.718;2022-09-02T03:07:52;100853.09;;;25.71;100.00
51460;BME280;37534;39.772;2.718;2022-09-02T03:10:18;100849.47;;;25.72;100.00
51460;BME280;37534;39.772;2.718;2022-09-02T03:12:44;100851.53;;;25.68;100.00
51460;BME280;37534;39.772;2.718;2022-09-02T03:15:13;100848.34;;;25.65;100.00
51460;BME280;37534;39.772;2.718;2022-09-02T03:17:45;100845.69;;;25.55;100.00
51460;BME280;37534;39.772;2.718;2022-09-02T03:20:11;100862.38;;;25.65;100.00
51460;BME280;37534;39.772;2.718;2022-09-02T03:22:37;100855.00;;;25.69;100.00
51460;BME280;37534;39.772;2.718;2022-09-02T03:25:05;100861.81;;;25.61;100.00
51460;BME280;37534;39.772;2.718;2022-09-02T03:27:31;100856.81;;;25.58;100.00
51460;BME280;37534;39.772;2.718;2022-09-02T03:29:58;100856.81;;;25.58;100.00
51460;BME280;37534;39.772;2.718;2022-09-02T03:32:24;100853.72;;;25.53;100.00
51460;BME280;37534;39.772;2.718;2022-09-02T03:34:50;100855.38;;;25.54;100.00
51460;BME280;37534;39.772;2.718;2022-09-02T03:37:15;100856.25;;;25.65;100.00
51460;BME280;37534;39.772;2.718;2022-09-02T03:39:41;100852.63;;;25.56;100.00
51460;BME280;37534;39.772;2.718;2022-09-02T03:42:07;100847.91;;;25.59;100.00
51460;BME280;37534;39.772;2.718;2022-09-02T03:44:32;100848.28;;;25.45;100.00
51460;BME280;37534;39.772;2.718;2022-09-02T03:46:59;100844.50;;;25.38;100.00
51460;BME280;37534;39.772;2.718;2022-09-02T03:49:24;100840.28;;;25.26;100.00
51460;BME280;37534;39.772;2.718;2022-09-02T03:51:51;100844.00;;;25.23;100.00
51460;BME280;37534;39.772;2.718;2022-09-02T03:54:17;100841.03;;;25.16;100.00
51460;BME280;37534;39.772;2.718;2022-09-02T03:56:43;100841.28;;;25.13;100.00
51460;BME280;37534;39.772;2.718;2022-09-02T03:59:08;100849.91;;;25.15;100.00
51460;BME280;37534;39.772;2.718;2022-09-02T04:01:34;100839.34;;;25.15;100.00
51460;BME280;37534;39.772;2.718;2022-09-02T04:03:59;100843.91;;;25.25;100.00
51460;BME280;37534;39.772;2.718;2022-09-02T04:06:26;100849.19;;;25.25;100.00
51460;BME280;37534;39.772;2.718;2022-09-02T04:08:52;100835.22;;;25.22;100.00
51460;BME280;37534;39.772;2.718;2022-09-02T04:11:19;100836.91;;;25.23;100.00
51460;BME280;37534;39.772;2.718;2022-09-02T04:13:46;100844.38;;;25.18;100.00
51460;BME280;37534;39.772;2.718;2022-09-02T04:16:16;100833.47;;;25.02;100.00
51460;BME280;37534;39.772;2.718;2022-09-02T04:18:42;100840.41;;;25.03;100.00
51460;BME280;37534;39.772;2.718;2022-09-02T04:21:09;100835.47;;;24.89;100.00
51460;BME280;37534;39.772;2.718;2022-09-02T04:23:35;100832.53;;;24.82;100.00
51460;BME280;37534;39.772;2.718;2022-09-02T04:26:10;100823.88;;;24.80;100.00
51460;BME280;37534;39.772;2.718;2022-09-02T04:28:36;100826.66;;;24.78;100.00
51460;BME280;37534;39.772;2.718;2022-09-02T04:31:07;100835.53;;;24.77;100.00
51460;BME280;37534;39.772;2.718;2022-09-02T04:33:33;100837.09;;;24.59;100.00
51460;BME280;37534;39.772;2.718;2022-09-02T04:36:03;100825.72;;;24.47;100.00
51460;BME280;37534;39.772;2.718;2022-09-02T04:38:29;100829.44;;;24.44;100.00
51460;BME280;37534;39.772;2.718;2022-09-02T04:40:54;100825.59;;;24.48;100.00
51460;BME280;37534;39.772;2.718;2022-09-02T04:43:20;100824.56;;;24.40;100.00
51460;BME280;37534;39.772;2.718;2022-09-02T04:45:45;100827.31;;;24.38;100.00
51460;BME280;37534;39.772;2.718;2022-09-02T04:48:11;100835.22;;;24.38;100.00
51460;BME280;37534;39.772;2.718;2022-09-02T04:50:40;100836.72;;;24.52;100.00
51460;BME280;37534;39.772;2.718;2022-09-02T04:53:07;100836.91;;;24.72;100.00
51460;BME280;37534;39.772;2.718;2022-09-02T04:55:34;100837.97;;;24.69;100.00
51460;BME280;37534;39.772;2.718;2022-09-02T04:57:59;100829.88;;;24.61;100.00
51460;BME280;37534;39.772;2.718;2022-09-02T05:00:25;100823.81;;;24.70;100.00
51460;BME280;37534;39.772;2.718;2022-09-02T05:02:52;100822.66;;;24.63;100.00
51460;BME280;37534;39.772;2.718;2022-09-02T05:05:18;100831.94;;;24.78;100.00
51460;BME280;37534;39.772;2.718;2022-09-02T05:07:44;100831.53;;;24.62;100.00
51460;BME280;37534;39.772;2.718;2022-09-02T05:10:09;100823.81;;;24.70;100.00
51460;BME280;37534;39.772;2.718;2022-09-02T05:12:39;100820.97;;;24.62;100.00
51460;BME280;37534;39.772;2.718;2022-09-02T05:15:07;100811.72;;;24.67;100.00
51460;BME280;37534;39.772;2.718;2022-09-02T05:17:33;100813.78;;;24.64;100.00
51460;BME280;37534;39.772;2.718;2022-09-02T05:20:02;100815.84;;;24.81;100.00
51460;BME280;37534;39.772;2.718;2022-09-02T05:22:28;100831.53;;;24.83;100.00
51460;BME280;37534;39.772;2.718;2022-09-02T05:24:55;100815.38;;;24.97;100.00
51460;BME280;37534;39.772;2.718;2022-09-02T05:27:22;100821.75;;;24.95;100.00
51460;BME280;37534;39.772;2.718;2022-09-02T05:29:48;100816.22;;;24.98;100.00
51460;BME280;37534;39.772;2.718;2022-09-02T05:32:14;100830.69;;;25.03;100.00
51460;BME280;37534;39.772;2.718;2022-09-02T05:34:39;100831.78;;;25.01;100.00
51460;BME280;37534;39.772;2.718;2022-09-02T05:37:05;100848.28;;;25.24;100.00
51460;BME280;37534;39.772;2.718;2022-09-02T05:39:30;100854.34;;;25.36;100.00
51460;BME280;37534;39.772;2.718;2022-09-02T05:41:56;100858.41;;;25.40;100.00
51460;BME280;37534;39.772;2.718;2022-09-02T05:44:22;100859.81;;;25.44;100.00
51460;BME280;37534;39.772;2.718;2022-09-02T05:46:48;100866.41;;;25.59;100.00
51460;BME280;37534;39.772;2.718;2022-09-02T05:49:13;100861.28;;;25.68;100.00
51460;BME280;37534;39.772;2.718;2022-09-02T05:51:51;100856.25;;;25.65;100.00
51460;BME280;37534;39.772;2.718;2022-09-02T05:54:21;100855.19;;;25.77;100.00
51460;BME280;37534;39.772;2.718;2022-09-02T05:56:51;100844.06;;;25.73;100.00
51460;BME280;37534;39.772;2.718;2022-09-02T05:59:18;100851.72;;;25.76;100.00
51460;BME280;37534;39.772;2.718;2022-09-02T06:01:44;100850.34;;;25.82;100.00
51460;BME280;37534;39.772;2.718;2022-09-02T06:04:10;100858.03;;;25.95;100.00
51460;BME280;37534;39.772;2.718;2022-09-02T06:06:36;100858.06;;;26.05;100.00
51460;BME280;37534;39.772;2.718;2022-09-02T06:09:06;100848.75;;;26.20;100.00
51460;BME280;37534;39.772;2.718;2022-09-02T06:11:35;100857.94;;;26.35;100.00
51460;BME280;37534;39.772;2.718;2022-09-02T06:14:05;100852.50;;;26.47;100.00
51460;BME280;37534;39.772;2.718;2022-09-02T06:16:32;100838.84;;;26.42;100.00
51460;BME280;37534;39.772;2.718;2022-09-02T06:18:59;100838.31;;;26.48;100.00
51460;BME280;37534;39.772;2.718;2022-09-02T06:21:24;100840.25;;;26.46;100.00
51460;BME280;37534;39.772;2.718;2022-09-02T06:23:50;100830.22;;;26.49;100.00
51460;BME280;37534;39.772;2.718;2022-09-02T06:26:16;100829.53;;;26.57;100.00
51460;BME280;37534;39.772;2.718;2022-09-02T06:28:43;100826.59;;;26.60;100.00
51460;BME280;37534;39.772;2.718;2022-09-02T06:31:11;100831.06;;;26.60;100.00
51460;BME280;37534;39.772;2.718;2022-09-02T06:33:39;100829.53;;;26.57;100.00
51460;BME280;37534;39.772;2.718;2022-09-02T06:36:12;100819.94;;;26.66;100.00
51460;BME280;37534;39.772;2.718;2022-09-02T06:38:39;100820.22;;;26.72;100.00
51460;BME280;37534;39.772;2.718;2022-09-02T06:41:06;100829.09;;;26.81;100.00
51460;BME280;37534;39.772;2.718;2022-09-02T06:43:34;100829.34;;;26.88;100.00
51460;BME280;37534;39.772;2.718;2022-09-02T06:46:00;100812.63;;;26.87;100.00
51460;BME280;37534;39.772;2.718;2022-09-02T06:48:25;100826.31;;;26.83;100.00
51460;BME280;37534;39.772;2.718;2022-09-02T06:50:51;100837.72;;;26.83;100.00
51460;BME280;37534;39.772;2.718;2022-09-02T06:53:16;100840.06;;;26.96;100.00
51460;BME280;37534;39.772;2.718;2022-09-02T06:55:44;100842.16;;;27.02;100.00
51460;BME280;37534;39.772;2.718;2022-09-02T06:58:10;100833.03;;;27.15;100.00
51460;BME280;37534;39.772;2.718;2022-09-02T07:00:37;100831.19;;;27.25;100.00
51460;BME280;37534;39.772;2.718;2022-09-02T07:03:04;100838.66;;;27.39;100.00
51460;BME280;37534;39.772;2.718;2022-09-02T07:06:09;100837.06;;;27.56;100.00
51460;BME280;37534;39.772;2.718;2022-09-02T07:08:40;100840.03;;;27.71;100.00
51460;BME280;37534;39.772;2.718;2022-09-02T07:11:10;100833.84;;;27.80;100.00
51460;BME280;37534;39.772;2.718;2022-09-02T07:13:39;100835.41;;;28.01;100.00
51460;BME280;37534;39.772;2.718;2022-09-02T07:16:05;100826.69;;;28.09;100.00
51460;BME280;37534;39.772;2.718;2022-09-02T07:18:32;100831.69;;;28.30;99.97
51460;BME280;37534;39.772;2.718;2022-09-02T07:20:58;100823.56;;;28.49;95.76
51460;BME280;37534;39.772;2.718;2022-09-02T07:23:23;100831.28;;;28.78;94.02
51460;BME280;37534;39.772;2.718;2022-09-02T07:25:49;100839.34;;;28.95;91.75
51460;BME280;37534;39.772;2.718;2022-09-02T07:28:15;100823.56;;;28.93;92.72
51460;BME280;37534;39.772;2.718;2022-09-02T07:30:41;100836.16;;;28.91;91.61
51460;BME280;37534;39.772;2.718;2022-09-02T07:33:07;100823.25;;;28.96;91.97
51460;BME280;37534;39.772;2.718;2022-09-02T07:35:33;100824.91;;;29.15;91.84
51460;BME280;37534;39.772;2.718;2022-09-02T07:38:01;100827.81;;;29.38;89.84
51460;BME280;37534;39.772;2.718;2022-09-02T07:40:28;100816.25;;;29.64;88.82
51460;BME280;37534;39.772;2.718;2022-09-02T07:42:54;100822.66;;;29.88;87.15
51460;BME280;37534;39.772;2.718;2022-09-02T07:45:20;100820.19;;;30.19;85.50
51460;BME280;37534;39.772;2.718;2022-09-02T07:47:45;100824.03;;;30.41;82.91
51460;BME280;37534;39.772;2.718;2022-09-02T07:50:13;100840.81;;;30.75;79.78
51460;BME280;37534;39.772;2.718;2022-09-02T07:52:38;100832.16;;;30.97;78.38
51460;BME280;37534;39.772;2.718;2022-09-02T07:55:04;100829.44;;;31.14;77.68
51460;BME280;37534;39.772;2.718;2022-09-02T07:57:30;100834.91;;;31.20;77.40
51460;BME280;37534;39.772;2.718;2022-09-02T07:59:56;100850.56;;;31.23;78.74
51460;BME280;37534;39.772;2.718;2022-09-02T08:02:22;100843.00;;;31.35;76.39
51460;BME280;37534;39.772;2.718;2022-09-02T08:04:48;100844.44;;;31.46;76.80
51460;BME280;37534;39.772;2.718;2022-09-02T08:07:14;100846.63;;;31.51;76.35
51460;BME280;37534;39.772;2.718;2022-09-02T08:09:43;100857.03;;;31.69;74.59
51460;BME280;37534;39.772;2.718;2022-09-02T08:12:08;100863.31;;;31.84;72.03
51460;BME280;37534;39.772;2.718;2022-09-02T08:14:34;100850.44;;;31.56;71.93
51460;BME280;37534;39.772;2.718;2022-09-02T08:16:59;100856.38;;;31.67;71.34
51460;BME280;37534;39.772;2.718;2022-09-02T08:19:25;100853.22;;;31.94;70.70
51460;BME280;37534;39.772;2.718;2022-09-02T08:21:51;100866.38;;;31.96;70.33
51460;BME280;37534;39.772;2.718;2022-09-02T08:24:17;100864.53;;;32.05;70.06
51460;BME280;37534;39.772;2.718;2022-09-02T08:26:43;100864.28;;;32.37;66.88
51460;BME280;37534;39.772;2.718;2022-09-02T08:29:09;100847.38;;;33.13;65.39
51460;BME280;37534;39.772;2.718;2022-09-02T08:31:37;100849.94;;;34.09;61.05
51460;BME280;37534;39.772;2.718;2022-09-02T08:34:03;100838.91;;;34.90;57.83
51460;BME280;37534;39.772;2.718;2022-09-02T08:36:28;100843.38;;;35.66;55.23
51460;BME280;37534;39.772;2.718;2022-09-02T08:38:54;100853.38;;;35.99;51.67
51460;BME280;37534;39.772;2.718;2022-09-02T08:41:29;100857.97;;;36.79;49.06
51460;BME280;37534;39.772;2.718;2022-09-02T08:43:59;100854.06;;;37.85;47.48
51460;BME280;37534;39.772;2.718;2022-09-02T08:46:27;100862.91;;;38.93;42.82
51460;BME280;37534;39.772;2.718;2022-09-02T08:49:02;100861.94;;;40.03;39.59
51460;BME280;37534;39.772;2.718;2022-09-02T08:51:31;100862.66;;;40.34;37.98
51460;BME280;37534;39.772;2.718;2022-09-02T08:54:03;100868.34;;;39.90;37.68
51460;BME280;37534;39.772;2.718;2022-09-02T08:56:30;100861.06;;;39.42;39.15
51460;BME280;37534;39.772;2.718;2022-09-02T08:58:56;100857.41;;;40.75;36.91
51460;BME280;37534;39.772;2.718;2022-09-02T09:01:40;100871.06;;;41.32;34.38
51460;BME280;37534;39.772;2.718;2022-09-02T09:10:15;100853.06;;;41.84;35.04
51460;BME280;37534;39.772;2.718;2022-09-02T09:18:04;100860.88;;;44.13;30.24
51460;BME280;37534;39.772;2.718;2022-09-02T09:20:33;100860.25;;;44.05;30.72
51460;BME280;37534;39.772;2.718;2022-09-02T09:23:13;100851.50;;;43.39;31.16
51460;BME280;37534;39.772;2.718;2022-09-02T09:25:44;100865.03;;;42.50;32.29
51460;BME280;37534;39.772;2.718;2022-09-02T09:28:12;100866.06;;;41.53;33.46
51460;BME280;37534;39.772;2.718;2022-09-02T09:30:38;100872.22;;;40.60;35.38
51460;BME280;37534;39.772;2.718;2022-09-02T09:33:04;100874.19;;;39.87;37.38
51460;BME280;37534;39.772;2.718;2022-09-02T09:35:59;100871.25;;;39.28;39.42
51460;BME280;37534;39.772;2.718;2022-09-02T09:38:33;100882.50;;;39.25;39.39
51460;BME280;37534;39.772;2.718;2022-09-02T09:41:20;100884.63;;;39.35;39.55
51460;BME280;37534;39.772;2.718;2022-09-02T09:43:48;100879.94;;;39.49;39.08
51460;BME280;37534;39.772;2.718;2022-09-02T09:46:28;100883.19;;;40.00;37.55
51460;BME280;37534;39.772;2.718;2022-09-02T09:48:56;100880.63;;;40.05;37.35
51460;BME280;37534;39.772;2.718;2022-09-02T09:51:22;100898.47;;;40.06;37.23
51460;BME280;37534;39.772;2.718;2022-09-02T09:53:48;100894.97;;;40.17;37.26
51460;BME280;37534;39.772;2.718;2022-09-02T10:01:29;100892.97;;;40.13;38.02
51460;BME280;37534;39.772;2.718;2022-09-02T10:04:08;100888.53;;;40.42;38.05
51460;BME280;37534;39.772;2.718;2022-09-02T10:06:42;100884.44;;;40.39;38.36
51460;BME280;37534;39.772;2.718;2022-09-02T10:12:12;100887.41;;;40.85;37.44
51460;BME280;37534;39.772;2.718;2022-09-02T10:14:46;100869.09;;;41.28;35.90
51460;BME280;37534;39.772;2.718;2022-09-02T10:19:53;100873.25;;;42.95;33.27
51460;BME280;37534;39.772;2.718;2022-09-02T10:32:09;100859.56;;;41.54;34.71
51460;BME280;37534;39.772;2.718;2022-09-02T10:37:22;100852.91;;;40.68;37.23
51460;BME280;37534;39.772;2.718;2022-09-02T10:42:37;100839.81;;;39.34;39.08
51460;BME280;37534;39.772;2.718;2022-09-02T10:47:35;100835.47;;;38.34;42.98
51460;BME280;37534;39.772;2.718;2022-09-02T10:52:54;100836.13;;;38.04;45.02
51460;BME280;37534;39.772;2.718;2022-09-02T11:01:21;100825.53;;;39.45;41.54
51460;BME280;37534;39.772;2.718;2022-09-02T11:06:44;100827.91;;;40.85;38.61
51460;BME280;37534;39.772;2.718;2022-09-02T11:11:56;100828.13;;;40.83;38.18
51460;BME280;37534;39.772;2.718;2022-09-02T11:17:48;100819.19;;;41.52;37.31
51460;BME280;37534;39.772;2.718;2022-09-02T11:20:36;100816.03;;;42.40;35.57
51460;BME280;37534;39.772;2.718;2022-09-02T11:23:40;100815.16;;;42.96;33.26
51460;BME280;37534;39.772;2.718;2022-09-02T11:29:06;100818.47;;;43.25;32.67
51460;BME280;37534;39.772;2.718;2022-09-02T11:34:36;100804.13;;;43.84;32.40
51460;BME280;37534;39.772;2.718;2022-09-02T11:37:10;100794.44;;;44.41;31.54
51460;BME280;37534;39.772;2.718;2022-09-02T11:40:29;100798.56;;;44.49;31.06
51460;BME280;37534;39.772;2.718;2022-09-02T11:53:37;100782.22;;;45.17;30.20
51460;BME280;37534;39.772;2.718;2022-09-02T11:56:20;100780.41;;;45.43;30.30
51460;BME280;37534;39.772;2.718;2022-09-02T11:58:50;100782.50;;;45.21;30.56
51460;BME280;37534;39.772;2.718;2022-09-02T12:01:32;100784.19;;;45.32;30.52
51460;BME280;37534;39.772;2.718;2022-09-02T12:04:04;100793.44;;;45.41;30.47
51460;BME280;37534;39.772;2.718;2022-09-02T12:06:30;100796.66;;;45.17;30.60
51460;BME280;37534;39.772;2.718;2022-09-02T12:08:59;100799.34;;;44.97;31.09
51460;BME280;37534;39.772;2.718;2022-09-02T12:11:34;100793.41;;;45.21;30.91
51460;BME280;37534;39.772;2.718;2022-09-02T12:14:07;100791.19;;;45.07;30.80
51460;BME280;37534;39.772;2.718;2022-09-02T12:16:41;100796.94;;;45.26;30.68
51460;BME280;37534;39.772;2.718;2022-09-02T12:24:55;100780.88;;;45.20;31.04
51460;BME280;37534;39.772;2.718;2022-09-02T12:27:31;100786.88;;;45.16;30.50
51460;BME280;37534;39.772;2.718;2022-09-02T12:29:57;100774.41;;;45.77;29.89
51460;BME280;37534;39.772;2.718;2022-09-02T12:35:34;100774.31;;;45.05;30.67
51460;BME280;37534;39.772;2.718;2022-09-02T12:40:45;100771.63;;;45.26;30.44
51460;BME280;37534;39.772;2.718;2022-09-02T12:43:25;100766.19;;;45.21;30.83
51460;BME280;37534;39.772;2.718;2022-09-02T12:45:59;100757.47;;;45.80;29.78
51460;BME280;37534;39.772;2.718;2022-09-02T12:48:38;100754.72;;;46.16;29.40
51460;BME280;37534;39.772;2.718;2022-09-02T12:51:06;100758.19;;;44.88;30.92
51460;BME280;37534;39.772;2.718;2022-09-02T12:53:45;100748.25;;;45.50;30.39
51460;BME280;37534;39.772;2.718;2022-09-02T12:56:21;100749.56;;;45.89;29.92
51460;BME280;37534;39.772;2.718;2022-09-02T12:58:54;100745.22;;;45.93;29.55
51460;BME280;37534;39.772;2.718;2022-09-02T13:13:26;100742.75;;;45.25;30.81
51460;BME280;37534;39.772;2.718;2022-09-02T13:16:18;100748.06;;;44.68;31.54
51460;BME280;37534;39.772;2.718;2022-09-02T13:28:01;100738.44;;;44.45;32.56
51460;BME280;37534;39.772;2.718;2022-09-02T13:30:49;100732.03;;;44.77;33.12
51460;BME280;37534;39.772;2.718;2022-09-02T13:33:20;100720.41;;;45.12;31.66
51460;BME280;37534;39.772;2.718;2022-09-02T13:35:45;100724.25;;;45.37;31.19
51460;BME280;37534;39.772;2.718;2022-09-02T13:38:22;100721.00;;;45.35;31.20
51460;BME280;37534;39.772;2.718;2022-09-02T13:40:48;100729.72;;;45.42;31.25
51460;BME280;37534;39.772;2.718;2022-09-02T13:45:43;100731.59;;;45.21;31.33
51460;BME280;37534;39.772;2.718;2022-09-02T13:48:18;100719.31;;;45.03;32.21
51460;BME280;37534;39.772;2.718;2022-09-02T13:50:50;100723.41;;;45.11;32.17
51460;BME280;37534;39.772;2.718;2022-09-02T13:53:52;100722.34;;;45.27;31.76
51460;BME280;37534;39.772;2.718;2022-09-02T13:56:12;100722.34;;;45.22;31.57
51460;BME280;37534;39.772;2.718;2022-09-02T13:58:51;100717.72;;;45.28;31.99
51460;BME280;37534;39.772;2.718;2022-09-02T14:01:35;100713.38;;;45.32;31.64
51460;BME280;37534;39.772;2.718;2022-09-02T14:04:04;100715.69;;;44.77;32.49
51460;BME280;37534;39.772;2.718;2022-09-02T14:06:34;100723.06;;;44.13;34.27
51460;BME280;37534;39.772;2.718;2022-09-02T14:09:04;100721.38;;;44.55;33.79
51460;BME280;37534;39.772;2.718;2022-09-02T14:11:41;100720.47;;;43.91;34.26
51460;BME280;37534;39.772;2.718;2022-09-02T14:14:11;100710.34;;;43.76;35.63
51460;BME280;37534;39.772;2.718;2022-09-02T14:16:37;100707.56;;;43.71;35.83
51460;BME280;37534;39.772;2.718;2022-09-02T14:21:55;100700.28;;;43.77;36.19
51460;BME280;37534;39.772;2.718;2022-09-02T14:24:27;100693.50;;;43.47;36.53
51460;BME280;37534;39.772;2.718;2022-09-02T14:26:57;100691.22;;;42.79;37.86
51460;BME280;37534;39.772;2.718;2022-09-02T14:29:24;100671.84;;;42.43;38.53
51460;BME280;37534;39.772;2.718;2022-09-02T14:32:10;100676.13;;;42.17;39.73
51460;BME280;37534;39.772;2.718;2022-09-02T14:34:39;100679.00;;;42.10;39.96
51460;BME280;37534;39.772;2.718;2022-09-02T14:37:21;100690.38;;;41.56;41.76
51460;BME280;37534;39.772;2.718;2022-09-02T14:40:06;100684.38;;;41.54;41.92
51460;BME280;37534;39.772;2.718;2022-09-02T14:42:45;100684.47;;;41.42;41.00
51460;BME280;37534;39.772;2.718;2022-09-02T14:45:12;100678.34;;;41.18;41.44
51460;BME280;37534;39.772;2.718;2022-09-02T14:47:39;100675.69;;;40.49;42.70
51460;BME280;37534;39.772;2.718;2022-09-02T14:50:12;100674.06;;;40.48;43.24